sensor_id;sensor_type;location;lat;lon;timestamp;temperature;humidity
17421;DHT22;8828;48.800;9.540;2023-05-07T00:00:21;16.60;99.90
17421;DHT22;8828;48.800;9.540;2023-05-07T00:02:50;16.60;99.90
17421;DHT22;8828;48.800;9.540;2023-05-07T00:05:18;16.50;99.90
17421;DHT22;8828;48.800;9.540;2023-05-07T00:07:46;16.50;99.90
17421;DHT22;8828;48.800;9.540;2023-05-07T00:10:14;16.50;99.90
17421;DHT22;8828;48.800;9.540;2023-05-07T00:12:42;16.50;99.90
17421;DHT22;8828;48.800;9.540;2023-05-07T00:15:10;16.40;99.90
17421;DHT22;8828;48.800;9.540;2023-05-07T00:17:38;16.40;99.90
17421;DHT22;8828;48.800;9.540;2023-05-07T00:20:07;16.40;99.90
17421;DHT22;8828;48.800;9.540;2023-05-07T00:22:36;16.40;99.90
17421;DHT22;8828;48.800;9.540;2023-05-07T00:25:04;16.40;99.90
17421;DHT22;8828;48.800;9.540;2023-05-07T00:27:32;16.30;99.90
17421;DHT22;8828;48.800;9.540;2023-05-07T00:30:00;16.30;99.90
17421;DHT22;8828;48.800;9.540;2023-05-07T00:32:28;16.20;99.90
17421;DHT22;8828;48.800;9.540;2023-05-07T00:34:55;16.20;99.90
17421;DHT22;8828;48.800;9.540;2023-05-07T00:37:25;16.20;99.90
17421;DHT22;8828;48.800;9.540;2023-05-07T00:39:52;16.20;99.90
17421;DHT22;8828;48.800;9.540;2023-05-07T00:42:20;16.20;99.90
17421;DHT22;8828;48.800;9.540;2023-05-07T00:44:48;16.20;99.90
17421;DHT22;8828;48.800;9.540;2023-05-07T00:47:16;16.10;99.90
17421;DHT22;8828;48.800;9.540;2023-05-07T00:49:44;16.10;99.90
17421;DHT22;8828;48.800;9.540;2023-05-07T00:52:13;16.10;99.90
17421;DHT22;8828;48.800;9.540;2023-05-07T00:54:42;16.10;99.90
17421;DHT22;8828;48.800;9.540;2023-05-07T00:57:10;16.00;99.90
17421;DHT22;8828;48.800;9.540;2023-05-07T00:59:38;16.00;99.90
17421;DHT22;8828;48.800;9.540;2023-05-07T01:02:07;16.00;99.90
17421;DHT22;8828;48.800;9.540;2023-05-07T01:04:34;16.00;99.90
17421;DHT22;8828;48.800;9.540;2023-05-07T01:07:03;15.90;99.90
17421;DHT22;8828;48.800;9.540;2023-05-07T01:09:32;15.90;99.90
17421;DHT22;8828;48.800;9.540;2023-05-07T01:12:03;15.90;99.90
17421;DHT22;8828;48.800;9.540;2023-05-07T01:14:31;15.90;99.90
17421;DHT22;8828;48.800;9.540;2023-05-07T01:17:00;15.90;99.90
17421;DHT22;8828;48.800;9.540;2023-05-07T01:19:28;15.90;99.90
17421;DHT22;8828;48.800;9.540;2023-05-07T01:21:59;15.90;99.90
17421;DHT22;8828;48.800;9.540;2023-05-07T01:24:30;15.90;99.90
17421;DHT22;8828;48.800;9.540;2023-05-07T01:26:58;15.80;99.90
17421;DHT22;8828;48.800;9.540;2023-05-07T01:29:25;15.80;99.90
17421;DHT22;8828;48.800;9.540;2023-05-07T01:31:53;15.80;99.90
17421;DHT22;8828;48.800;9.540;2023-05-07T01:34:22;15.80;99.90
17421;DHT22;8828;48.800;9.540;2023-05-07T01:36:50;15.80;99.90
17421;DHT22;8828;48.800;9.540;2023-05-07T01:39:18;15.80;99.90
17421;DHT22;8828;48.800;9.540;2023-05-07T01:41:47;15.70;99.90
17421;DHT22;8828;48.800;9.540;2023-05-07T01:44:15;15.70;99.90
17421;DHT22;8828;48.800;9.540;2023-05-07T01:46:44;15.70;99.90
17421;DHT22;8828;48.800;9.540;2023-05-07T01:49:12;15.70;99.90
17421;DHT22;8828;48.800;9.540;2023-05-07T01:51:39;15.70;99.90
17421;DHT22;8828;48.800;9.540;2023-05-07T01:54:07;15.60;99.90
17421;DHT22;8828;48.800;9.540;2023-05-07T01:56:35;15.60;99.90
17421;DHT22;8828;48.800;9.540;2023-05-07T01:59:04;15.50;99.90
17421;DHT22;8828;48.800;9.540;2023-05-07T02:01:32;15.50;99.90
17421;DHT22;8828;48.800;9.540;2023-05-07T02:03:59;15.40;99.90
17421;DHT22;8828;48.800;9.540;2023-05-07T02:06:27;15.40;99.90
17421;DHT22;8828;48.800;9.540;2023-05-07T02:08:55;15.40;99.90
17421;DHT22;8828;48.800;9.540;2023-05-07T02:11:23;15.40;99.90
17421;DHT22;8828;48.800;9.540;2023-05-07T02:13:51;15.40;99.90
17421;DHT22;8828;48.800;9.540;2023-05-07T02:16:20;15.40;99.90
17421;DHT22;8828;48.800;9.540;2023-05-07T02:18:49;15.40;99.90
17421;DHT22;8828;48.800;9.540;2023-05-07T02:21:17;15.40;99.90
17421;DHT22;8828;48.800;9.540;2023-05-07T02:23:45;15.40;99.90
17421;DHT22;8828;48.800;9.540;2023-05-07T02:26:12;15.30;99.90
17421;DHT22;8828;48.800;9.540;2023-05-07T02:28:40;15.30;99.90
17421;DHT22;8828;48.800;9.540;2023-05-07T02:31:08;15.30;99.90
17421;DHT22;8828;48.800;9.540;2023-05-07T02:33:37;15.30;99.90
17421;DHT22;8828;48.800;9.540;2023-05-07T02:36:05;15.20;99.90
17421;DHT22;8828;48.800;9.540;2023-05-07T02:38:33;15.10;99.90
17421;DHT22;8828;48.800;9.540;2023-05-07T02:41:01;15.10;99.90
17421;DHT22;8828;48.800;9.540;2023-05-07T02:43:29;15.10;99.90
17421;DHT22;8828;48.800;9.540;2023-05-07T02:46:00;15.10;99.90
17421;DHT22;8828;48.800;9.540;2023-05-07T02:48:28;15.00;99.90
17421;DHT22;8828;48.800;9.540;2023-05-07T02:50:57;15.10;99.90
17421;DHT22;8828;48.800;9.540;2023-05-07T02:53:25;15.10;99.90
17421;DHT22;8828;48.800;9.540;2023-05-07T02:55:53;15.00;99.90
17421;DHT22;8828;48.800;9.540;2023-05-07T02:58:21;15.00;99.90
17421;DHT22;8828;48.800;9.540;2023-05-07T03:00:48;15.00;99.90
17421;DHT22;8828;48.800;9.540;2023-05-07T03:03:16;15.00;99.90
17421;DHT22;8828;48.800;9.540;2023-05-07T03:05:44;14.90;99.90
17421;DHT22;8828;48.800;9.540;2023-05-07T03:08:13;14.90;99.90
17421;DHT22;8828;48.800;9.540;2023-05-07T03:10:41;14.90;99.90
17421;DHT22;8828;48.800;9.540;2023-05-07T03:13:09;14.90;99.90
17421;DHT22;8828;48.800;9.540;2023-05-07T03:15:37;14.80;99.90
17421;DHT22;8828;48.800;9.540;2023-05-07T03:18:04;14.80;99.90
17421;DHT22;8828;48.800;9.540;2023-05-07T03:20:32;14.70;99.90
17421;DHT22;8828;48.800;9.540;2023-05-07T03:23:00;14.70;99.90
17421;DHT22;8828;48.800;9.540;2023-05-07T03:25:29;14.60;99.90
17421;DHT22;8828;48.800;9.540;2023-05-07T03:27:57;14.60;99.90
17421;DHT22;8828;48.800;9.540;2023-05-07T03:30:25;14.60;99.90
17421;DHT22;8828;48.800;9.540;2023-05-07T03:32:53;14.60;99.90
17421;DHT22;8828;48.800;9.540;2023-05-07T03:35:21;14.60;99.90
17421;DHT22;8828;48.800;9.540;2023-05-07T03:37:48;14.50;99.90
17421;DHT22;8828;48.800;9.540;2023-05-07T03:40:17;14.50;99.90
17421;DHT22;8828;48.800;9.540;2023-05-07T03:42:46;14.50;99.90
17421;DHT22;8828;48.800;9.540;2023-05-07T03:45:14;14.40;99.90
17421;DHT22;8828;48.800;9.540;2023-05-07T03:47:42;14.50;99.90
17421;DHT22;8828;48.800;9.540;2023-05-07T03:50:09;14.50;99.90
17421;DHT22;8828;48.800;9.540;2023-05-07T03:52:38;14.50;99.90
17421;DHT22;8828;48.800;9.540;2023-05-07T03:55:06;14.50;99.90
17421;DHT22;8828;48.800;9.540;2023-05-07T03:57:34;14.50;99.90
17421;DHT22;8828;48.800;9.540;2023-05-07T04:00:03;14.40;99.90
17421;DHT22;8828;48.800;9.540;2023-05-07T04:02:33;14.40;99.90
17421;DHT22;8828;48.800;9.540;2023-05-07T04:05:00;14.30;99.90
17421;DHT22;8828;48.800;9.540;2023-05-07T04:07:28;14.30;99.90
17421;DHT22;8828;48.800;9.540;2023-05-07T04:09:56;14.30;99.90
17421;DHT22;8828;48.800;9.540;2023-05-07T04:12:24;14.30;99.90
17421;DHT22;8828;48.800;9.540;2023-05-07T04:14:52;14.30;99.90
17421;DHT22;8828;48.800;9.540;2023-05-07T04:17:21;14.30;99.90
17421;DHT22;8828;48.800;9.540;2023-05-07T04:19:48;14.30;99.90
17421;DHT22;8828;48.800;9.540;2023-05-07T04:22:16;14.30;99.90
17421;DHT22;8828;48.800;9.540;2023-05-07T04:24:44;14.30;99.90
17421;DHT22;8828;48.800;9.540;2023-05-07T04:27:12;14.30;99.90
17421;DHT22;8828;48.800;9.540;2023-05-07T04:29:39;14.20;99.90
17421;DHT22;8828;48.800;9.540;2023-05-07T04:32:08;14.20;99.90
17421;DHT22;8828;48.800;9.540;2023-05-07T04:34:38;14.30;99.90
17421;DHT22;8828;48.800;9.540;2023-05-07T04:37:06;14.30;99.90
17421;DHT22;8828;48.800;9.540;2023-05-07T04:39:33;14.30;99.90
17421;DHT22;8828;48.800;9.540;2023-05-07T04:42:01;14.30;99.90
17421;DHT22;8828;48.800;9.540;2023-05-07T04:44:29;14.30;99.90
17421;DHT22;8828;48.800;9.540;2023-05-07T04:46:57;14.30;99.90
17421;DHT22;8828;48.800;9.540;2023-05-07T04:49:25;14.30;99.90
17421;DHT22;8828;48.800;9.540;2023-05-07T04:51:54;14.30;99.90
17421;DHT22;8828;48.800;9.540;2023-05-07T04:54:23;14.40;99.90
17421;DHT22;8828;48.800;9.540;2023-05-07T04:56:51;14.30;99.90
17421;DHT22;8828;48.800;9.540;2023-05-07T04:59:19;14.40;99.90
17421;DHT22;8828;48.800;9.540;2023-05-07T05:01:47;14.40;99.90
17421;DHT22;8828;48.800;9.540;2023-05-07T05:04:15;14.40;99.90
17421;DHT22;8828;48.800;9.540;2023-05-07T05:06:42;14.40;99.90
17421;DHT22;8828;48.800;9.540;2023-05-07T05:09:12;14.40;99.90
17421;DHT22;8828;48.800;9.540;2023-05-07T05:11:40;14.40;99.90
17421;DHT22;8828;48.800;9.540;2023-05-07T05:14:08;14.50;99.90
17421;DHT22;8828;48.800;9.540;2023-05-07T05:16:36;14.50;99.90
17421;DHT22;8828;48.800;9.540;2023-05-07T05:19:04;14.50;99.90
17421;DHT22;8828;48.800;9.540;2023-05-07T05:21:31;14.50;99.90
17421;DHT22;8828;48.800;9.540;2023-05-07T05:23:59;14.50;99.90
17421;DHT22;8828;48.800;9.540;2023-05-07T05:26:28;14.50;99.90
17421;DHT22;8828;48.800;9.540;2023-05-07T05:28:56;14.50;99.90
17421;DHT22;8828;48.800;9.540;2023-05-07T05:31:24;14.50;99.90
17421;DHT22;8828;48.800;9.540;2023-05-07T05:33:52;14.60;99.90
17421;DHT22;8828;48.800;9.540;2023-05-07T05:36:19;14.60;99.90
17421;DHT22;8828;48.800;9.540;2023-05-07T05:38:47;14.60;99.90
17421;DHT22;8828;48.800;9.540;2023-05-07T05:41:15;14.60;99.90
17421;DHT22;8828;48.800;9.540;2023-05-07T05:43:44;14.60;99.90
17421;DHT22;8828;48.800;9.540;2023-05-07T05:46:12;14.70;99.90
17421;DHT22;8828;48.800;9.540;2023-05-07T05:48:39;14.80;99.90
17421;DHT22;8828;48.800;9.540;2023-05-07T05:51:07;14.80;99.90
17421;DHT22;8828;48.800;9.540;2023-05-07T05:53:35;14.90;99.90
17421;DHT22;8828;48.800;9.540;2023-05-07T05:56:03;14.90;99.90
17421;DHT22;8828;48.800;9.540;2023-05-07T05:58:31;15.00;99.90
17421;DHT22;8828;48.800;9.540;2023-05-07T06:01:00;15.00;99.90
17421;DHT22;8828;48.800;9.540;2023-05-07T06:03:29;15.10;99.90
17421;DHT22;8828;48.800;9.540;2023-05-07T06:05:56;15.10;99.90
17421;DHT22;8828;48.800;9.540;2023-05-07T06:08:24;15.20;99.90
17421;DHT22;8828;48.800;9.540;2023-05-07T06:10:52;15.30;99.90
17421;DHT22;8828;48.800;9.540;2023-05-07T06:13:20;15.30;99.90
17421;DHT22;8828;48.800;9.540;2023-05-07T06:15:48;15.40;99.90
17421;DHT22;8828;48.800;9.540;2023-05-07T06:18:17;15.50;99.90
17421;DHT22;8828;48.800;9.540;2023-05-07T06:20:45;15.60;99.90
17421;DHT22;8828;48.800;9.540;2023-05-07T06:23:13;15.70;99.90
17421;DHT22;8828;48.800;9.540;2023-05-07T06:25:45;15.80;99.90
17421;DHT22;8828;48.800;9.540;2023-05-07T06:28:13;15.90;99.90
17421;DHT22;8828;48.800;9.540;2023-05-07T06:30:41;16.00;99.90
17421;DHT22;8828;48.800;9.540;2023-05-07T06:33:09;16.10;99.90
17421;DHT22;8828;48.800;9.540;2023-05-07T06:35:38;16.20;99.90
17421;DHT22;8828;48.800;9.540;2023-05-07T06:38:05;16.20;99.90
17421;DHT22;8828;48.800;9.540;2023-05-07T06:40:33;16.20;99.90
17421;DHT22;8828;48.800;9.540;2023-05-07T06:43:01;16.30;99.90
17421;DHT22;8828;48.800;9.540;2023-05-07T06:45:29;16.30;99.90
17421;DHT22;8828;48.800;9.540;2023-05-07T06:47:56;16.40;99.90
17421;DHT22;8828;48.800;9.540;2023-05-07T06:50:24;16.40;99.90
17421;DHT22;8828;48.800;9.540;2023-05-07T06:52:53;16.50;99.90
17421;DHT22;8828;48.800;9.540;2023-05-07T06:55:21;16.60;99.90
17421;DHT22;8828;48.800;9.540;2023-05-07T06:57:49;16.70;99.90
17421;DHT22;8828;48.800;9.540;2023-05-07T07:00:17;16.80;99.90
17421;DHT22;8828;48.800;9.540;2023-05-07T07:02:45;16.90;99.90
17421;DHT22;8828;48.800;9.540;2023-05-07T07:05:13;17.00;99.90
17421;DHT22;8828;48.800;9.540;2023-05-07T07:07:40;17.10;99.90
17421;DHT22;8828;48.800;9.540;2023-05-07T07:10:10;17.30;99.90
17421;DHT22;8828;48.800;9.540;2023-05-07T07:12:38;17.40;99.90
17421;DHT22;8828;48.800;9.540;2023-05-07T07:15:06;17.50;99.90
17421;DHT22;8828;48.800;9.540;2023-05-07T07:17:34;17.70;99.90
17421;DHT22;8828;48.800;9.540;2023-05-07T07:22:44;18.00;99.90
17421;DHT22;8828;48.800;9.540;2023-05-07T07:25:13;18.10;99.90
17421;DHT22;8828;48.800;9.540;2023-05-07T07:27:41;18.30;99.90
17421;DHT22;8828;48.800;9.540;2023-05-07T07:30:15;18.40;99.90
17421;DHT22;8828;48.800;9.540;2023-05-07T07:32:43;18.60;99.90
17421;DHT22;8828;48.800;9.540;2023-05-07T07:35:11;18.70;99.90
17421;DHT22;8828;48.800;9.540;2023-05-07T07:37:39;18.80;99.90
17421;DHT22;8828;48.800;9.540;2023-05-07T07:40:07;19.00;99.90
17421;DHT22;8828;48.800;9.540;2023-05-07T07:42:37;19.10;99.90
17421;DHT22;8828;48.800;9.540;2023-05-07T07:45:05;19.30;99.90
17421;DHT22;8828;48.800;9.540;2023-05-07T07:47:33;19.40;99.90
17421;DHT22;8828;48.800;9.540;2023-05-07T07:50:01;19.50;99.90
17421;DHT22;8828;48.800;9.540;2023-05-07T07:52:29;19.70;99.90
17421;DHT22;8828;48.800;9.540;2023-05-07T07:54:57;19.80;99.90
17421;DHT22;8828;48.800;9.540;2023-05-07T07:57:24;20.00;99.90
17421;DHT22;8828;48.800;9.540;2023-05-07T07:59:53;20.10;99.90
17421;DHT22;8828;48.800;9.540;2023-05-07T08:02:21;20.20;99.90
17421;DHT22;8828;48.800;9.540;2023-05-07T08:04:49;20.40;99.90
17421;DHT22;8828;48.800;9.540;2023-05-07T08:07:17;20.70;99.90
17421;DHT22;8828;48.800;9.540;2023-05-07T08:09:47;20.80;99.90
17421;DHT22;8828;48.800;9.540;2023-05-07T08:12:14;21.00;99.90
17421;DHT22;8828;48.800;9.540;2023-05-07T08:14:42;21.20;99.90
17421;DHT22;8828;48.800;9.540;2023-05-07T08:17:11;21.30;99.90
17421;DHT22;8828;48.800;9.540;2023-05-07T08:19:42;21.50;99.90
17421;DHT22;8828;48.800;9.540;2023-05-07T08:22:10;21.50;99.90
17421;DHT22;8828;48.800;9.540;2023-05-07T08:24:38;21.70;99.90
17421;DHT22;8828;48.800;9.540;2023-05-07T08:27:06;21.80;99.90
17421;DHT22;8828;48.800;9.540;2023-05-07T08:29:33;21.90;99.90
17421;DHT22;8828;48.800;9.540;2023-05-07T08:32:02;22.00;99.90
17421;DHT22;8828;48.800;9.540;2023-05-07T08:34:31;22.10;99.90
17421;DHT22;8828;48.800;9.540;2023-05-07T08:36:58;22.20;99.90
17421;DHT22;8828;48.800;9.540;2023-05-07T08:39:26;22.30;99.90
17421;DHT22;8828;48.800;9.540;2023-05-07T08:41:55;22.40;99.90
17421;DHT22;8828;48.800;9.540;2023-05-07T08:44:23;22.30;99.90
17421;DHT22;8828;48.800;9.540;2023-05-07T08:46:53;22.40;99.90
17421;DHT22;8828;48.800;9.540;2023-05-07T08:49:23;22.40;99.90
17421;DHT22;8828;48.800;9.540;2023-05-07T08:51:52;22.50;99.90
17421;DHT22;8828;48.800;9.540;2023-05-07T08:54:20;22.50;99.90
17421;DHT22;8828;48.800;9.540;2023-05-07T08:56:48;22.60;99.90
17421;DHT22;8828;48.800;9.540;2023-05-07T08:59:16;22.60;99.90
17421;DHT22;8828;48.800;9.540;2023-05-07T09:01:44;22.70;99.90
17421;DHT22;8828;48.800;9.540;2023-05-07T09:04:12;22.80;99.90
17421;DHT22;8828;48.800;9.540;2023-05-07T09:06:40;22.80;99.90
17421;DHT22;8828;48.800;9.540;2023-05-07T09:09:10;22.90;99.90
17421;DHT22;8828;48.800;9.540;2023-05-07T09:11:41;22.90;99.90
17421;DHT22;8828;48.800;9.540;2023-05-07T09:14:09;22.80;99.90
17421;DHT22;8828;48.800;9.540;2023-05-07T09:16:37;22.70;99.90
17421;DHT22;8828;48.800;9.540;2023-05-07T09:19:05;22.70;99.90
17421;DHT22;8828;48.800;9.540;2023-05-07T09:21:33;22.70;99.90
17421;DHT22;8828;48.800;9.540;2023-05-07T09:24:01;22.70;99.90
17421;DHT22;8828;48.800;9.540;2023-05-07T09:26:30;22.80;99.90
17421;DHT22;8828;48.800;9.540;2023-05-07T09:28:59;22.90;99.90
17421;DHT22;8828;48.800;9.540;2023-05-07T09:31:27;23.00;99.90
17421;DHT22;8828;48.800;9.540;2023-05-07T09:33:55;23.10;99.90
17421;DHT22;8828;48.800;9.540;2023-05-07T09:36:23;23.20;99.90
17421;DHT22;8828;48.800;9.540;2023-05-07T09:38:51;23.30;99.90
17421;DHT22;8828;48.800;9.540;2023-05-07T09:41:18;23.40;99.90
17421;DHT22;8828;48.800;9.540;2023-05-07T09:43:48;23.50;99.90
17421;DHT22;8828;48.800;9.540;2023-05-07T09:46:20;23.70;99.90
17421;DHT22;8828;48.800;9.540;2023-05-07T09:48:50;23.70;99.90
17421;DHT22;8828;48.800;9.540;2023-05-07T09:51:21;23.80;99.90
17421;DHT22;8828;48.800;9.540;2023-05-07T09:53:50;23.90;99.90
17421;DHT22;8828;48.800;9.540;2023-05-07T09:56:18;23.90;99.90
17421;DHT22;8828;48.800;9.540;2023-05-07T09:58:48;24.00;99.90
17421;DHT22;8828;48.800;9.540;2023-05-07T10:01:17;24.00;99.90
17421;DHT22;8828;48.800;9.540;2023-05-07T10:03:48;24.10;99.90
17421;DHT22;8828;48.800;9.540;2023-05-07T10:06:17;24.10;99.90
17421;DHT22;8828;48.800;9.540;2023-05-07T10:08:45;24.20;99.90
17421;DHT22;8828;48.800;9.540;2023-05-07T10:11:14;24.30;99.90
17421;DHT22;8828;48.800;9.540;2023-05-07T10:13:42;24.40;99.70
17421;DHT22;8828;48.800;9.540;2023-05-07T10:16:11;24.50;99.70
17421;DHT22;8828;48.800;9.540;2023-05-07T10:18:40;24.50;99.10
17421;DHT22;8828;48.800;9.540;2023-05-07T10:21:08;24.50;99.50
17421;DHT22;8828;48.800;9.540;2023-05-07T10:23:38;24.50;99.40
17421;DHT22;8828;48.800;9.540;2023-05-07T10:26:06;24.50;98.30
17421;DHT22;8828;48.800;9.540;2023-05-07T10:28:38;24.50;98.50
17421;DHT22;8828;48.800;9.540;2023-05-07T10:33:51;24.40;98.00
17421;DHT22;8828;48.800;9.540;2023-05-07T10:36:20;24.30;97.90
17421;DHT22;8828;48.800;9.540;2023-05-07T10:38:49;24.40;98.40
17421;DHT22;8828;48.800;9.540;2023-05-07T10:41:17;24.40;97.80
17421;DHT22;8828;48.800;9.540;2023-05-07T10:43:45;24.50;98.10
17421;DHT22;8828;48.800;9.540;2023-05-07T10:46:15;24.50;97.40
17421;DHT22;8828;48.800;9.540;2023-05-07T10:51:33;24.40;98.90
17421;DHT22;8828;48.800;9.540;2023-05-07T10:54:20;24.30;98.20
17421;DHT22;8828;48.800;9.540;2023-05-07T10:56:47;24.20;99.00
17421;DHT22;8828;48.800;9.540;2023-05-07T11:02:11;24.10;99.50
17421;DHT22;8828;48.800;9.540;2023-05-07T11:04:41;24.00;99.90
17421;DHT22;8828;48.800;9.540;2023-05-07T11:07:20;23.90;99.60
17421;DHT22;8828;48.800;9.540;2023-05-07T11:10:02;23.90;99.90
17421;DHT22;8828;48.800;9.540;2023-05-07T11:12:47;23.80;99.90
17421;DHT22;8828;48.800;9.540;2023-05-07T11:15:15;23.80;97.80
17421;DHT22;8828;48.800;9.540;2023-05-07T11:17:52;23.80;98.10
17421;DHT22;8828;48.800;9.540;2023-05-07T11:20:20;23.80;98.90
17421;DHT22;8828;48.800;9.540;2023-05-07T11:22:49;23.80;98.50
17421;DHT22;8828;48.800;9.540;2023-05-07T11:25:22;23.80;99.10
17421;DHT22;8828;48.800;9.540;2023-05-07T11:27:49;23.80;99.80
17421;DHT22;8828;48.800;9.540;2023-05-07T11:30:17;23.80;99.70
17421;DHT22;8828;48.800;9.540;2023-05-07T11:32:47;23.80;99.90
17421;DHT22;8828;48.800;9.540;2023-05-07T11:35:15;23.80;99.50
17421;DHT22;8828;48.800;9.540;2023-05-07T11:37:43;23.80;99.90
17421;DHT22;8828;48.800;9.540;2023-05-07T11:40:13;23.80;99.40
17421;DHT22;8828;48.800;9.540;2023-05-07T11:42:41;23.80;97.30
17421;DHT22;8828;48.800;9.540;2023-05-07T11:45:09;23.80;96.80
17421;DHT22;8828;48.800;9.540;2023-05-07T11:47:38;23.80;96.40
17421;DHT22;8828;48.800;9.540;2023-05-07T11:50:06;23.80;96.70
17421;DHT22;8828;48.800;9.540;2023-05-07T11:52:35;23.70;96.20
17421;DHT22;8828;48.800;9.540;2023-05-07T11:55:03;23.80;96.20
17421;DHT22;8828;48.800;9.540;2023-05-07T11:57:33;23.80;97.00
17421;DHT22;8828;48.800;9.540;2023-05-07T12:00:01;23.80;96.80
17421;DHT22;8828;48.800;9.540;2023-05-07T12:02:31;23.80;96.50
17421;DHT22;8828;48.800;9.540;2023-05-07T12:05:01;23.80;96.40
17421;DHT22;8828;48.800;9.540;2023-05-07T12:07:30;23.80;96.20
17421;DHT22;8828;48.800;9.540;2023-05-07T12:09:58;23.80;96.90
17421;DHT22;8828;48.800;9.540;2023-05-07T12:12:25;23.80;96.20
17421;DHT22;8828;48.800;9.540;2023-05-07T12:14:55;23.80;96.30
17421;DHT22;8828;48.800;9.540;2023-05-07T12:17:23;23.70;97.10
17421;DHT22;8828;48.800;9.540;2023-05-07T12:19:51;23.70;96.80
17421;DHT22;8828;48.800;9.540;2023-05-07T12:22:20;23.70;96.60
17421;DHT22;8828;48.800;9.540;2023-05-07T12:24:48;23.60;96.00
17421;DHT22;8828;48.800;9.540;2023-05-07T12:27:17;23.60;96.00
17421;DHT22;8828;48.800;9.540;2023-05-07T12:29:44;23.50;95.80
17421;DHT22;8828;48.800;9.540;2023-05-07T12:32:15;23.40;96.20
17421;DHT22;8828;48.800;9.540;2023-05-07T12:34:43;23.40;96.70
17421;DHT22;8828;48.800;9.540;2023-05-07T12:37:11;23.30;96.80
17421;DHT22;8828;48.800;9.540;2023-05-07T12:39:44;23.30;96.80
17421;DHT22;8828;48.800;9.540;2023-05-07T12:42:14;23.20;96.40
17421;DHT22;8828;48.800;9.540;2023-05-07T12:44:43;23.20;95.90
17421;DHT22;8828;48.800;9.540;2023-05-07T12:47:12;23.10;96.00
17421;DHT22;8828;48.800;9.540;2023-05-07T12:49:41;23.10;95.20
17421;DHT22;8828;48.800;9.540;2023-05-07T12:52:09;23.10;94.60
17421;DHT22;8828;48.800;9.540;2023-05-07T12:54:38;23.10;94.60
17421;DHT22;8828;48.800;9.540;2023-05-07T12:57:07;23.10;94.40
17421;DHT22;8828;48.800;9.540;2023-05-07T12:59:35;23.10;94.20
17421;DHT22;8828;48.800;9.540;2023-05-07T13:02:03;23.00;94.30
17421;DHT22;8828;48.800;9.540;2023-05-07T13:04:32;23.00;95.00
17421;DHT22;8828;48.800;9.540;2023-05-07T13:07:01;22.90;95.20
17421;DHT22;8828;48.800;9.540;2023-05-07T13:09:29;22.90;94.90
17421;DHT22;8828;48.800;9.540;2023-05-07T13:11:57;22.80;95.20
17421;DHT22;8828;48.800;9.540;2023-05-07T13:14:26;22.80;95.20
17421;DHT22;8828;48.800;9.540;2023-05-07T13:16:54;22.80;95.20
17421;DHT22;8828;48.800;9.540;2023-05-07T13:19:22;22.70;95.40
17421;DHT22;8828;48.800;9.540;2023-05-07T13:21:49;22.60;96.00
17421;DHT22;8828;48.800;9.540;2023-05-07T13:24:18;22.50;96.50
17421;DHT22;8828;48.800;9.540;2023-05-07T13:26:46;22.40;96.60
17421;DHT22;8828;48.800;9.540;2023-05-07T13:29:14;22.40;97.10
17421;DHT22;8828;48.800;9.540;2023-05-07T13:31:42;22.30;97.40
17421;DHT22;8828;48.800;9.540;2023-05-07T13:34:10;22.30;98.00
17421;DHT22;8828;48.800;9.540;2023-05-07T13:36:38;22.20;98.70
17421;DHT22;8828;48.800;9.540;2023-05-07T13:39:08;22.10;98.70
17421;DHT22;8828;48.800;9.540;2023-05-07T13:41:37;22.00;98.90
17421;DHT22;8828;48.800;9.540;2023-05-07T13:44:05;22.00;99.60
17421;DHT22;8828;48.800;9.540;2023-05-07T13:46:33;22.00;99.90
17421;DHT22;8828;48.800;9.540;2023-05-07T13:49:01;21.90;99.90
17421;DHT22;8828;48.800;9.540;2023-05-07T13:51:28;21.80;99.90
17421;DHT22;8828;48.800;9.540;2023-05-07T13:53:56;21.70;99.90
17421;DHT22;8828;48.800;9.540;2023-05-07T13:56:25;21.70;99.90
17421;DHT22;8828;48.800;9.540;2023-05-07T13:58:56;21.60;99.90
17421;DHT22;8828;48.800;9.540;2023-05-07T14:01:26;21.50;99.90
17421;DHT22;8828;48.800;9.540;2023-05-07T14:03:55;21.50;99.90
17421;DHT22;8828;48.800;9.540;2023-05-07T14:06:23;21.40;99.90
17421;DHT22;8828;48.800;9.540;2023-05-07T14:08:51;21.30;99.90
17421;DHT22;8828;48.800;9.540;2023-05-07T14:11:18;21.30;99.90
17421;DHT22;8828;48.800;9.540;2023-05-07T14:13:47;21.20;99.90
17421;DHT22;8828;48.800;9.540;2023-05-07T14:16:16;21.20;99.90
17421;DHT22;8828;48.800;9.540;2023-05-07T14:18:44;21.20;99.90
17421;DHT22;8828;48.800;9.540;2023-05-07T14:21:11;21.20;99.90
17421;DHT22;8828;48.800;9.540;2023-05-07T14:23:40;21.20;99.90
17421;DHT22;8828;48.800;9.540;2023-05-07T14:26:08;21.20;99.90
17421;DHT22;8828;48.800;9.540;2023-05-07T14:28:36;21.20;99.90
17421;DHT22;8828;48.800;9.540;2023-05-07T14:31:06;21.20;99.90
17421;DHT22;8828;48.800;9.540;2023-05-07T14:33:35;21.20;99.90
17421;DHT22;8828;48.800;9.540;2023-05-07T14:36:05;21.20;99.90
17421;DHT22;8828;48.800;9.540;2023-05-07T14:38:33;21.10;99.90
17421;DHT22;8828;48.800;9.540;2023-05-07T14:41:01;21.10;99.90
17421;DHT22;8828;48.800;9.540;2023-05-07T14:43:28;21.00;99.90
17421;DHT22;8828;48.800;9.540;2023-05-07T14:45:56;21.00;99.90
17421;DHT22;8828;48.800;9.540;2023-05-07T14:48:24;20.90;99.90
17421;DHT22;8828;48.800;9.540;2023-05-07T14:50:53;20.80;99.90
17421;DHT22;8828;48.800;9.540;2023-05-07T14:53:21;20.70;99.90
17421;DHT22;8828;48.800;9.540;2023-05-07T14:55:49;20.60;99.90
17421;DHT22;8828;48.800;9.540;2023-05-07T14:58:17;20.50;99.90
17421;DHT22;8828;48.800;9.540;2023-05-07T15:00:44;20.40;99.90
17421;DHT22;8828;48.800;9.540;2023-05-07T15:03:12;20.30;99.90
17421;DHT22;8828;48.800;9.540;2023-05-07T15:05:40;20.30;99.90
17421;DHT22;8828;48.800;9.540;2023-05-07T15:08:09;20.20;99.90
17421;DHT22;8828;48.800;9.540;2023-05-07T15:10:37;20.20;99.90
17421;DHT22;8828;48.800;9.540;2023-05-07T15:13:07;20.20;99.90
17421;DHT22;8828;48.800;9.540;2023-05-07T15:15:41;20.20;99.90
17421;DHT22;8828;48.800;9.540;2023-05-07T15:18:09;20.20;99.90
17421;DHT22;8828;48.800;9.540;2023-05-07T15:20:37;20.20;99.90
17421;DHT22;8828;48.800;9.540;2023-05-07T15:23:05;20.10;99.90
17421;DHT22;8828;48.800;9.540;2023-05-07T15:25:37;20.10;99.90
17421;DHT22;8828;48.800;9.540;2023-05-07T15:28:05;20.10;99.90
17421;DHT22;8828;48.800;9.540;2023-05-07T15:30:33;20.10;99.90
17421;DHT22;8828;48.800;9.540;2023-05-07T15:33:01;20.00;99.90
17421;DHT22;8828;48.800;9.540;2023-05-07T15:35:29;20.00;99.90
17421;DHT22;8828;48.800;9.540;2023-05-07T15:37:56;20.00;99.90
17421;DHT22;8828;48.800;9.540;2023-05-07T15:40:24;20.00;99.90
17421;DHT22;8828;48.800;9.540;2023-05-07T15:42:55;20.00;99.90
17421;DHT22;8828;48.800;9.540;2023-05-07T15:45:23;20.00;99.90
17421;DHT22;8828;48.800;9.540;2023-05-07T15:47:51;19.90;99.90
17421;DHT22;8828;48.800;9.540;2023-05-07T15:50:19;20.00;99.90
17421;DHT22;8828;48.800;9.540;2023-05-07T15:52:47;20.00;99.90
17421;DHT22;8828;48.800;9.540;2023-05-07T15:55:14;20.00;99.90
17421;DHT22;8828;48.800;9.540;2023-05-07T15:57:42;19.90;99.90
17421;DHT22;8828;48.800;9.540;2023-05-07T16:00:12;19.90;99.90
17421;DHT22;8828;48.800;9.540;2023-05-07T16:02:42;19.90;99.90